Time;durP1;ratioP1;P1;durP2;ratioP2;P2;SDS_P1;SDS_P2;PMS_P1;PMS_P2;Temp;Humidity;BMP_temperature;BMP_pressure;BME280_temperature;BME280_humidity;BME280_pressure;Samples;Min_cycle;Max_cycle;Signal;HPM_P1;HPM_P2
2022/09/16 00:00:30;;;;;;;10.88;5.37;;;;;;;13.92;80.05;99297.72;1692979;83;25868;-80
2022/09/16 00:02:58;;;;;;;9.23;5.75;;;;;;;13.89;80.08;99291.48;1696526;83;25757;-80
2022/09/16 00:05:25;;;;;;;10.03;5.42;;;;;;;13.88;80.23;99295.74;1692138;83;25852;-80
2022/09/16 00:07:53;;;;;;;10.75;5.97;;;;;;;13.86;80.25;99297.34;1691674;83;28262;-80
2022/09/16 00:10:20;;;;;;;6.53;5.17;;;;;;;13.82;80.38;99293.49;1693614;83;25934;-80
2022/09/16 00:12:48;;;;;;;8.18;4.95;;;;;;;13.81;80.46;99295.88;1701213;83;25293;-80
2022/09/16 00:15:16;;;;;;;8.95;6.03;;;;;;;13.80;80.52;99303.68;1672754;83;27350;-80
2022/09/16 00:17:42;;;;;;;6.92;5.28;;;;;;;13.80;80.55;99294.78;1695706;82;25872;-80
2022/09/16 00:20:08;;;;;;;10.58;5.15;;;;;;;13.78;80.61;99292.34;1693858;83;27984;-80
2022/09/16 00:22:35;;;;;;;11.43;5.75;;;;;;;13.77;80.59;99293.38;1693823;83;26379;-79
2022/09/16 00:25:01;;;;;;;7.37;5.30;;;;;;;13.73;80.66;99290.88;1696071;83;25786;-80
2022/09/16 00:27:27;;;;;;;10.60;5.92;;;;;;;13.72;80.71;99295.16;1697970;82;26351;-80
2022/09/16 00:29:54;;;;;;;9.75;5.80;;;;;;;13.67;80.74;99300.43;1695775;83;25935;-80
2022/09/16 00:32:20;;;;;;;7.25;5.53;;;;;;;13.68;80.87;99306.12;1684522;83;27436;-80
2022/09/16 00:34:46;;;;;;;9.38;5.35;;;;;;;13.67;80.95;99313.89;1700854;83;25304;-80
2022/09/16 00:37:12;;;;;;;10.98;5.28;;;;;;;13.65;81.13;99319.52;1697436;83;25933;-80
2022/09/16 00:39:39;;;;;;;7.37;5.28;;;;;;;13.62;81.21;99312.45;1695215;83;25841;-79
2022/09/16 00:42:05;;;;;;;10.05;5.53;;;;;;;13.58;81.48;99320.16;1694883;83;25770;-80
2022/09/16 00:44:59;;;;;;;10.88;5.17;;;;;;;13.57;81.70;99317.20;1692748;83;27427;-80
2022/09/16 00:47:42;;;;;;;8.23;5.17;;;;;;;13.54;81.85;99314.14;1694448;83;26409;-80
2022/09/16 00:50:39;;;;;;;7.30;4.87;;;;;;;13.53;82.10;99308.48;1689158;83;25836;-81
2022/09/16 00:53:14;;;;;;;9.43;5.60;;;;;;;13.52;82.19;99304.15;1694466;83;26261;-81
2022/09/16 00:55:42;;;;;;;9.25;5.35;;;;;;;13.50;82.22;99308.43;1695843;83;25288;-81
2022/09/16 00:58:29;;;;;;;9.70;5.55;;;;;;;13.50;82.30;99311.12;1695163;83;27432;-81
2022/09/16 01:00:55;;;;;;;8.18;4.80;;;;;;;13.51;82.33;99311.42;1694629;83;26687;-81
2022/09/16 01:03:24;;;;;;;10.80;5.42;;;;;;;13.49;82.23;99313.53;1696223;83;25895;-81
2022/09/16 01:05:51;;;;;;;8.53;4.37;;;;;;;13.50;82.27;99320.53;1697091;83;26404;-81
2022/09/16 01:08:17;;;;;;;8.45;5.00;;;;;;;13.50;82.21;99315.67;1701632;83;25872;-81
2022/09/16 01:10:44;;;;;;;8.43;4.70;;;;;;;13.45;82.12;99312.34;1696230;83;27496;-81
2022/09/16 01:13:14;;;;;;;11.20;4.90;;;;;;;13.43;82.12;99319.04;1694217;83;25909;-81
2022/09/16 01:15:46;;;;;;;11.35;5.95;;;;;;;13.41;82.12;99320.60;1695532;83;25872;-81
2022/09/16 01:18:50;;;;;;;7.50;4.60;;;;;;;13.40;82.18;99324.88;1683585;83;25744;-81
2022/09/16 01:21:43;;;;;;;13.10;5.00;;;;;;;13.38;82.17;99331.84;1693944;83;25782;-82
2022/09/16 01:24:42;;;;;;;7.92;4.28;;;;;;;13.39;82.24;99333.47;1696681;83;28229;-81
2022/09/16 01:27:22;;;;;;;8.70;4.42;;;;;;;13.41;82.29;99330.02;1690705;83;26433;-80
2022/09/16 01:30:00;;;;;;;8.63;4.45;;;;;;;13.44;82.32;99332.25;1693177;83;25833;-80
2022/09/16 01:32:46;;;;;;;6.20;4.45;;;;;;;13.44;82.33;99327.39;1696536;83;25788;-80
2022/09/16 01:35:33;;;;;;;5.75;3.80;;;;;;;13.46;82.39;99325.28;1695476;83;25901;-81
2022/09/16 01:38:26;;;;;;;8.55;4.05;;;;;;;13.45;82.33;99325.80;1712705;82;27834;-81
2022/09/16 01:41:09;;;;;;;7.62;4.10;;;;;;;13.45;82.34;99320.97;1713447;83;25294;-81
2022/09/16 01:43:58;;;;;;;6.25;3.62;;;;;;;13.43;82.42;99323.88;1717585;83;26363;-81
2022/09/16 01:46:35;;;;;;;7.55;3.87;;;;;;;13.44;82.38;99327.39;1697456;83;25800;-81
2022/09/16 01:49:19;;;;;;;5.67;3.40;;;;;;;13.44;82.40;99330.91;1703140;83;26125;-80
2022/09/16 01:52:00;;;;;;;7.72;3.72;;;;;;;13.43;82.50;99329.25;1642031;85;28621;-80
2022/09/16 01:54:35;;;;;;;6.10;3.95;;;;;;;13.43;82.48;99336.52;1688937;84;25781;-80
2022/09/16 01:57:13;;;;;;;7.00;4.58;;;;;;;13.41;82.59;99336.73;1689263;84;25664;-80
2022/09/16 02:00:02;;;;;;;8.45;3.60;;;;;;;13.45;82.51;99343.83;1690708;84;25838;-80
2022/09/16 02:02:36;;;;;;;4.15;3.30;;;;;;;13.48;82.48;99341.48;1694390;83;25941;-79
2022/09/16 02:05:11;;;;;;;6.33;3.92;;;;;;;13.45;82.33;99341.14;1689661;84;27432;-82
2022/09/16 02:07:42;;;;;;;5.90;3.47;;;;;;;13.46;82.46;99334.69;1690358;84;25768;-80
2022/09/16 02:10:30;;;;;;;8.55;3.72;;;;;;;13.46;82.39;99342.24;1691002;84;25698;-79
2022/09/16 02:13:02;;;;;;;8.33;3.95;;;;;;;13.46;82.42;99340.89;1688838;84;25794;-80
2022/09/16 02:15:32;;;;;;;6.78;3.27;;;;;;;13.46;82.49;99334.17;1689965;84;25936;-80
2022/09/16 02:18:10;;;;;;;5.22;3.45;;;;;;;13.42;82.51;99329.49;1694605;84;27468;-80
2022/09/16 02:20:41;;;;;;;10.43;4.30;;;;;;;13.39;82.76;99326.74;1688441;84;25370;-81
2022/09/16 02:23:16;;;;;;;11.28;4.47;;;;;;;13.37;82.88;99332.89;1690206;84;25827;-81
2022/09/16 02:25:46;;;;;;;7.40;3.90;;;;;;;13.40;82.96;99331.09;1695020;84;26569;-81
2022/09/16 02:28:17;;;;;;;8.05;4.10;;;;;;;13.37;83.08;99328.85;1690458;84;25929;-82
2022/09/16 02:30:49;;;;;;;6.05;4.15;;;;;;;13.34;83.18;99329.86;1691024;84;27446;-81
2022/09/16 02:33:17;;;;;;;6.78;3.92;;;;;;;13.33;83.30;99335.76;1691257;84;25743;-81
2022/09/16 02:35:47;;;;;;;7.67;3.65;;;;;;;13.34;83.43;99329.34;1688625;84;25855;-81
2022/09/16 02:38:22;;;;;;;6.55;4.10;;;;;;;13.33;83.50;99334.94;1684867;84;26486;-81
2022/09/16 02:40:53;;;;;;;5.47;3.92;;;;;;;13.32;83.53;99340.03;1684662;83;26004;-81
2022/09/16 02:43:19;;;;;;;6.45;4.05;;;;;;;13.28;83.56;99337.53;1694355;84;28394;-80
2022/09/16 02:45:59;;;;;;;6.87;4.00;;;;;;;13.25;83.66;99332.61;1690698;84;25733;-81
2022/09/16 02:48:54;;;;;;;7.72;4.28;;;;;;;13.24;83.71;99333.67;1639550;84;25798;-80
2022/09/16 02:51:53;;;;;;;5.35;4.15;;;;;;;13.22;83.73;99335.75;1695691;82;26267;-79
2022/09/16 02:55:02;;;;;;;6.15;3.87;;;;;;;13.16;83.73;99329.45;1693509;83;25759;-80
2022/09/16 02:57:28;;;;;;;11.22;4.53;;;;;;;13.12;83.79;99339.04;1715709;82;27432;-81
2022/09/16 02:59:56;;;;;;;4.78;3.80;;;;;;;13.08;83.91;99336.02;1715747;82;25881;-81
2022/09/16 03:02:22;;;;;;;8.58;4.50;;;;;;;13.06;83.87;99335.95;1698126;83;25972;-81
2022/09/16 03:04:48;;;;;;;5.35;3.83;;;;;;;13.01;83.94;99336.61;1705783;82;25837;-81
2022/09/16 03:07:16;;;;;;;6.35;5.62;;;;;;;12.98;83.99;99335.72;1702162;83;25772;-81
2022/09/16 03:09:45;;;;;;;7.42;3.90;;;;;;;12.98;83.93;99335.72;1719166;83;27474;-81
2022/09/16 03:12:35;;;;;;;6.10;3.90;;;;;;;12.97;83.96;99332.75;1715179;83;25859;-81
2022/09/16 03:15:22;;;;;;;10.55;4.08;;;;;;;12.96;84.00;99338.34;1720299;82;25982;-81
2022/09/16 03:18:11;;;;;;;6.25;3.85;;;;;;;12.92;84.03;99327.24;1676745;83;26739;-81
2022/09/16 03:21:15;;;;;;;5.80;3.12;;;;;;;12.89;84.05;99337.66;1703823;83;25763;-81
2022/09/16 03:24:08;;;;;;;7.83;3.98;;;;;;;12.85;84.05;99337.28;1702325;83;27435;-79
2022/09/16 03:27:03;;;;;;;5.37;3.52;;;;;;;12.81;84.26;99345.52;1705346;83;26041;-80
2022/09/16 03:29:38;;;;;;;4.65;3.47;;;;;;;12.78;84.51;99342.48;1703528;82;25911;-80
2022/09/16 03:32:11;;;;;;;4.67;3.45;;;;;;;12.74;84.52;99348.03;1709937;83;26229;-80
2022/09/16 03:35:00;;;;;;;5.33;3.58;;;;;;;12.74;84.66;99346.16;1706048;82;26107;-81
2022/09/16 03:37:33;;;;;;;7.25;4.65;;;;;;;12.74;84.69;99350.20;1708072;82;27464;-80
2022/09/16 03:40:06;;;;;;;6.92;4.17;;;;;;;12.73;84.85;99347.20;1703663;82;25734;-81
2022/09/16 03:42:32;;;;;;;5.95;4.00;;;;;;;12.75;85.07;99353.16;1703211;82;25941;-80
2022/09/16 03:44:59;;;;;;;7.45;4.55;;;;;;;12.72;85.17;99349.61;1712332;82;26002;-80
2022/09/16 03:47:25;;;;;;;7.97;4.60;;;;;;;12.73;85.24;99343.69;1711451;82;25858;-80
2022/09/16 03:49:53;;;;;;;7.30;4.80;;;;;;;12.70;85.32;99346.30;1705752;83;26949;-80
2022/09/16 03:52:19;;;;;;;9.30;4.83;;;;;;;12.70;85.38;99344.17;1710858;83;25895;-80
2022/09/16 03:54:46;;;;;;;7.05;4.30;;;;;;;12.69;85.41;99346.55;1712101;82;25948;-80
2022/09/16 03:57:12;;;;;;;10.53;4.95;;;;;;;12.69;85.56;99352.74;1706486;83;25858;-81
2022/09/16 03:59:38;;;;;;;5.70;4.45;;;;;;;12.68;85.39;99354.33;1713833;83;25752;-80
2022/09/16 04:02:05;;;;;;;8.20;4.75;;;;;;;12.67;85.37;99345.95;1712691;83;27458;-80
2022/09/16 04:04:31;;;;;;;8.33;4.80;;;;;;;12.66;85.33;99354.53;1710204;82;25863;-81
2022/09/16 04:06:57;;;;;;;6.62;4.50;;;;;;;12.64;85.25;99359.32;1712949;83;25776;-79
2022/09/16 04:09:23;;;;;;;6.40;4.60;;;;;;;12.60;85.25;99359.48;1712998;82;25861;-80
2022/09/16 04:11:50;;;;;;;9.38;4.90;;;;;;;12.60;85.30;99362.70;1713115;82;25634;-80
2022/09/16 04:14:16;;;;;;;7.90;3.98;;;;;;;12.56;85.26;99364.20;1713574;82;27452;-80
2022/09/16 04:16:42;;;;;;;7.05;4.30;;;;;;;12.53;85.34;99364.13;1712115;82;25765;-80
2022/09/16 04:19:12;;;;;;;9.65;4.30;;;;;;;12.55;85.42;99373.33;1713225;83;26416;-80
2022/09/16 04:21:40;;;;;;;7.75;5.03;;;;;;;12.55;85.31;99372.81;1713615;82;25753;-80
2022/09/16 04:24:08;;;;;;;8.28;4.17;;;;;;;12.49;85.29;99371.56;1713087;83;25702;-80
2022/09/16 04:26:34;;;;;;;8.70;5.92;;;;;;;12.49;85.40;99370.22;1711769;82;27484;-80
2022/09/16 04:29:00;;;;;;;8.28;4.78;;;;;;;12.44;85.37;99368.73;1712859;82;25905;-81
2022/09/16 04:31:27;;;;;;;6.12;4.30;;;;;;;12.44;85.45;99371.41;1711808;83;25750;-81
2022/09/16 04:33:53;;;;;;;8.00;4.10;;;;;;;12.44;85.44;99372.24;1710739;83;25770;-80
2022/09/16 04:36:20;;;;;;;6.10;4.30;;;;;;;12.44;85.37;99370.07;1712379;83;25835;-80
2022/09/16 04:38:48;;;;;;;8.83;4.35;;;;;;;12.42;85.33;99369.48;1707608;83;27475;-80
2022/09/16 04:41:22;;;;;;;6.03;4.42;;;;;;;12.40;85.38;99373.75;1716667;82;26024;-80
2022/09/16 04:43:55;;;;;;;7.25;3.92;;;;;;;12.39;85.42;99376.95;1718397;81;25856;-80
2022/09/16 04:46:23;;;;;;;6.00;3.72;;;;;;;12.37;85.35;99383.59;1720459;82;26539;-81
2022/09/16 04:48:51;;;;;;;7.83;4.17;;;;;;;12.34;85.47;99385.38;1695052;83;25891;-80
2022/09/16 04:51:19;;;;;;;8.13;4.00;;;;;;;12.32;85.59;99378.07;1710729;82;27464;-81
2022/09/16 04:53:46;;;;;;;10.13;3.98;;;;;;;12.32;85.68;99380.23;1714651;82;25848;-81
2022/09/16 04:56:18;;;;;;;8.88;4.20;;;;;;;12.32;85.68;99382.92;1713038;82;25816;-80
2022/09/16 04:58:51;;;;;;;6.50;4.15;;;;;;;12.32;85.67;99383.44;1715064;82;26458;-80
2022/09/16 05:01:25;;;;;;;4.72;3.83;;;;;;;12.29;85.66;99391.45;1713191;82;25919;-80
2022/09/16 05:03:56;;;;;;;6.67;3.40;;;;;;;12.29;85.80;99387.42;1712627;82;27559;-80
2022/09/16 05:06:25;;;;;;;;;;;;;;;12.28;85.84;99386.29;1717337;82;25920;-80
2022/09/16 05:08:54;;;;;;;7.37;3.67;;;;;;;12.27;85.88;99376.61;1707770;83;25884;-80
2022/09/16 05:11:25;;;;;;;8.33;3.70;;;;;;;12.24;85.96;99374.37;1716496;82;25800;-80
2022/09/16 05:13:51;;;;;;;6.28;4.37;;;;;;;12.26;85.97;99370.93;1711391;82;25861;-80
2022/09/16 05:16:21;;;;;;;8.65;4.33;;;;;;;12.28;86.07;99373.69;1716067;82;27428;-80
2022/09/16 05:18:52;;;;;;;7.72;3.92;;;;;;;12.30;85.98;99372.94;1715913;82;25927;-79
2022/09/16 05:21:21;;;;;;;8.80;4.80;;;;;;;12.28;85.92;99373.69;1717897;82;33117;-80
2022/09/16 05:23:48;;;;;;;6.87;3.92;;;;;;;12.27;86.09;99374.72;1715990;82;26570;-80
2022/09/16 05:26:22;;;;;;;9.25;4.95;;;;;;;12.27;86.02;99369.35;1715951;83;26470;-80
2022/09/16 05:28:50;;;;;;;7.25;3.50;;;;;;;12.28;86.19;99376.37;1717917;82;28318;-80
2022/09/16 05:31:21;;;;;;;5.83;3.15;;;;;;;12.29;86.17;99379.38;1716280;82;25932;-80
2022/09/16 05:33:55;;;;;;;6.72;3.67;;;;;;;12.31;86.21;99384.50;1712518;82;25833;-80
2022/09/16 05:36:22;;;;;;;6.28;3.58;;;;;;;12.31;86.28;99383.16;1710956;82;25657;-80
2022/09/16 05:38:49;;;;;;;4.33;3.72;;;;;;;12.32;86.27;99382.09;1715966;82;25804;-80
2022/09/16 05:41:15;;;;;;;5.47;3.10;;;;;;;12.33;86.26;99386.44;1717095;82;27723;-80
2022/09/16 05:43:42;;;;;;;6.58;3.72;;;;;;;12.33;86.31;99387.78;1715957;82;26768;-80
2022/09/16 05:46:13;;;;;;;6.80;3.75;;;;;;;12.34;86.33;99391.57;1672206;83;25835;-80
2022/09/16 05:48:42;;;;;;;7.58;3.30;;;;;;;12.39;86.42;99389.03;1707380;83;26385;-80
2022/09/16 05:51:09;;;;;;;8.23;3.25;;;;;;;12.41;86.39;99388.80;1709569;82;25942;-81
2022/09/16 05:53:35;;;;;;;5.65;3.37;;;;;;;12.45;86.54;99384.61;1709818;83;27469;-79
2022/09/16 05:56:07;;;;;;;8.00;3.20;;;;;;;12.48;86.46;99387.37;1723388;82;25917;-80
2022/09/16 05:58:35;;;;;;;6.97;3.72;;;;;;;12.50;86.42;99382.58;1713651;83;25955;-80
2022/09/16 06:01:12;;;;;;;6.83;3.72;;;;;;;12.53;86.45;99388.30;1710474;83;26114;-80
2022/09/16 06:03:41;;;;;;;7.10;4.12;;;;;;;12.58;86.49;99380.91;1710597;83;25737;-80
2022/09/16 06:06:27;;;;;;;8.03;3.37;;;;;;;12.63;86.37;99381.88;1697328;83;27433;-80
2022/09/16 06:08:57;;;;;;;5.00;3.00;;;;;;;12.66;86.15;99385.44;1692985;83;25909;-81
2022/09/16 06:11:26;;;;;;;4.08;2.60;;;;;;;12.72;86.29;99374.31;1700676;83;26427;-82
2022/09/16 06:13:54;;;;;;;8.33;3.02;;;;;;;12.80;86.29;99376.66;1697423;83;25465;-81
2022/09/16 06:16:24;;;;;;;5.37;2.67;;;;;;;12.81;85.92;99383.13;1708413;83;25951;-81
2022/09/16 06:18:52;;;;;;;6.95;2.80;;;;;;;12.83;85.94;99386.41;1703280;83;27460;-81
2022/09/16 06:21:19;;;;;;;6.12;2.70;;;;;;;12.87;85.71;99387.58;1691373;83;25983;-81
2022/09/16 06:23:45;;;;;;;5.83;2.40;;;;;;;12.92;85.57;99382.86;1707086;83;25900;-82
2022/09/16 06:26:18;;;;;;;5.30;2.27;;;;;;;12.93;85.31;99389.38;1699728;83;25464;-81
2022/09/16 06:28:46;;;;;;;7.60;2.40;;;;;;;13.00;85.62;99378.52;1708490;83;25744;-81
2022/09/16 06:31:19;;;;;;;5.97;2.45;;;;;;;13.07;85.43;99380.06;1704049;83;27460;-81
2022/09/16 06:33:49;;;;;;;5.15;1.98;;;;;;;13.14;84.94;99381.30;1707232;83;25891;-81
2022/09/16 06:36:20;;;;;;;8.20;2.62;;;;;;;13.17;84.58;99380.84;1708642;83;25900;-81
2022/09/16 06:38:47;;;;;;;6.60;2.10;;;;;;;13.21;84.56;99380.67;1707145;83;25905;-81
2022/09/16 06:41:16;;;;;;;5.08;2.00;;;;;;;13.28;84.63;99381.35;1709264;83;25783;-81
2022/09/16 06:43:43;;;;;;;5.33;2.22;;;;;;;13.35;84.03;99381.23;1704220;82;27627;-81
2022/09/16 06:46:16;;;;;;;9.80;2.60;;;;;;;13.35;83.29;99378.55;1702845;83;25897;-83
2022/09/16 06:48:46;;;;;;;5.53;2.17;;;;;;;13.33;83.01;99382.00;1695643;83;25824;-83
2022/09/16 06:51:16;;;;;;;5.65;2.10;;;;;;;13.36;83.24;99367.58;1708245;83;26248;-83
2022/09/16 06:53:44;;;;;;;6.65;2.58;;;;;;;13.42;83.08;99371.19;1703471;83;25878;-83
2022/09/16 06:56:13;;;;;;;6.78;2.75;;;;;;;13.49;82.96;99370.55;1701629;83;27457;-82
2022/09/16 06:58:46;;;;;;;12.50;3.20;;;;;;;13.52;82.64;99367.38;1700077;83;25913;-83
2022/09/16 07:01:19;;;;;;;8.00;2.75;;;;;;;13.56;82.17;99382.81;1720502;82;26440;-83
2022/09/16 07:03:49;;;;;;;11.18;3.72;;;;;;;13.60;82.06;99385.32;1705550;83;25815;-83
2022/09/16 07:06:19;;;;;;;7.83;3.00;;;;;;;13.67;82.27;99391.41;1700927;83;25989;-83
2022/09/16 07:08:46;;;;;;;11.43;3.15;;;;;;;13.75;81.85;99384.31;1706161;82;27476;-83
2022/09/16 07:11:17;;;;;;;5.03;2.55;;;;;;;13.85;82.09;99392.63;1710936;83;25766;-84
2022/09/16 07:13:45;;;;;;;9.73;2.08;;;;;;;13.89;81.25;99391.61;1709500;82;25936;-83
2022/09/16 07:16:17;;;;;;;6.65;1.98;;;;;;;13.89;80.69;99389.74;1707637;82;25769;-83
2022/09/16 07:18:44;;;;;;;11.80;2.85;;;;;;;13.96;80.76;99390.13;1711189;82;25851;-83
2022/09/16 07:21:15;;;;;;;11.50;3.20;;;;;;;14.00;80.58;99404.23;1708493;82;27433;-83
2022/09/16 07:23:43;;;;;;;17.02;7.10;;;;;;;14.06;79.96;99397.89;1706255;82;25956;-84
2022/09/16 07:26:25;;;;;;;11.63;4.87;;;;;;;14.11;79.72;99398.53;1713217;82;25860;-84
2022/09/16 07:28:51;;;;;;;;;;;;;;;14.18;79.68;99410.78;1712108;82;26622;-84
2022/09/16 07:31:23;;;;;;;6.03;2.15;;;;;;;14.23;79.26;99401.47;1712842;83;25811;-83
2022/09/16 07:33:51;;;;;;;7.45;1.92;;;;;;;14.27;78.78;99399.93;1711338;82;27440;-83
2022/09/16 07:36:22;;;;;;;10.23;2.20;;;;;;;14.31;78.03;99401.11;1709137;82;25936;-84
2022/09/16 07:38:50;;;;;;;;;;;;;;;14.32;77.22;99412.19;1714560;83;25942;-83
2022/09/16 07:41:24;;;;;;;5.45;2.58;;;;;;;14.35;77.04;99420.33;1711869;82;26466;-83
2022/09/16 07:43:54;;;;;;;5.87;2.05;;;;;;;14.38;77.21;99417.14;1707696;82;26411;-83
2022/09/16 07:46:21;;;;;;;5.92;2.05;;;;;;;14.47;77.46;99410.32;1709021;83;28383;-82
2022/09/16 07:48:49;;;;;;;7.08;2.52;;;;;;;14.56;76.79;99419.11;1706900;82;25907;-83
2022/09/16 07:51:20;;;;;;;6.87;1.40;;;;;;;14.61;76.09;99417.87;1711134;82;25852;-82
2022/09/16 07:53:48;;;;;;;8.08;1.80;;;;;;;14.62;75.21;99414.13;1713586;83;26217;-81
2022/09/16 07:56:18;;;;;;;4.55;1.30;;;;;;;14.63;74.99;99404.14;1691416;83;25939;-82
2022/09/16 07:58:46;;;;;;;8.63;1.90;;;;;;;14.65;74.50;99399.33;1706740;83;27456;-82
2022/09/16 08:01:15;;;;;;;8.13;1.62;;;;;;;14.74;74.59;99409.19;1718363;83;25780;-82
2022/09/16 08:03:43;;;;;;;5.05;1.30;;;;;;;14.76;73.64;99407.89;1713182;82;25896;-82
2022/09/16 08:06:14;;;;;;;6.37;1.35;;;;;;;14.79;73.68;99409.28;1705581;82;26454;-83
2022/09/16 08:08:42;;;;;;;5.90;1.25;;;;;;;14.81;73.13;99411.20;1710387;83;25910;-82
2022/09/16 08:11:08;;;;;;;5.97;1.50;;;;;;;14.86;72.97;99409.96;1702775;83;27470;-82
2022/09/16 08:13:36;;;;;;;4.12;1.10;;;;;;;14.92;72.61;99413.85;1711114;83;25808;-82
2022/09/16 08:16:10;;;;;;;6.37;1.20;;;;;;;14.96;72.57;99416.34;1706756;83;26058;-82
2022/09/16 08:18:36;;;;;;;3.20;1.00;;;;;;;15.04;72.73;99416.45;1705043;83;26247;-82
2022/09/16 08:21:12;;;;;;;8.28;1.70;;;;;;;15.10;71.86;99408.73;1707397;83;25806;-81
2022/09/16 08:23:39;;;;;;;10.35;1.37;;;;;;;15.16;71.19;99401.04;1702063;83;27487;-82
2022/09/16 08:26:08;;;;;;;6.08;1.35;;;;;;;15.20;71.19;99398.13;1705963;83;26664;-82
2022/09/16 08:28:34;;;;;;;8.28;1.17;;;;;;;15.27;71.06;99406.33;1712684;83;25868;-83
2022/09/16 08:31:01;;;;;;;8.15;1.37;;;;;;;15.37;71.44;99403.81;1694600;83;25833;-82
2022/09/16 08:33:28;;;;;;;5.47;1.32;;;;;;;15.45;70.81;99405.30;1713453;83;25898;-83
2022/09/16 08:36:04;;;;;;;8.00;1.40;;;;;;;15.51;70.12;99401.60;1709875;83;28265;-83
2022/09/16 08:38:32;;;;;;;5.58;1.35;;;;;;;15.57;69.34;99396.56;1708567;83;25822;-82
2022/09/16 08:41:21;;;;;;;6.20;1.20;;;;;;;15.60;68.66;99408.75;1702926;83;25816;-82
2022/09/16 08:44:22;;;;;;;7.12;1.30;;;;;;;15.57;68.06;99395.20;1705623;83;25786;-82
2022/09/16 08:46:59;;;;;;;8.40;1.70;;;;;;;15.54;68.15;99395.72;1701861;83;25874;-84
2022/09/16 08:49:38;;;;;;;4.17;1.00;;;;;;;15.56;67.74;99406.27;1708775;83;27500;-81
2022/09/16 08:52:19;;;;;;;9.83;1.20;;;;;;;15.60;67.08;99402.00;1695885;83;25797;-82
2022/09/16 08:55:05;;;;;;;10.70;1.32;;;;;;;15.63;66.67;99394.20;1710849;83;33222;-83
2022/09/16 08:57:39;;;;;;;8.43;1.77;;;;;;;15.71;66.43;99397.86;1711315;78;26614;-82
2022/09/16 09:00:21;;;;;;;8.47;1.70;;;;;;;15.85;67.64;99399.12;1705170;78;25844;31
2022/09/16 09:03:07;;;;;;;4.95;1.35;;;;;;;15.98;67.17;99396.05;1720947;81;27050;-81
2022/09/16 09:05:45;;;;;;;14.93;1.30;;;;;;;16.10;67.29;99390.54;1711779;82;25826;-83
2022/09/16 09:08:42;;;;;;;6.67;1.40;;;;;;;16.14;66.40;99398.42;1712304;82;25825;-82
2022/09/16 09:11:32;;;;;;;6.62;1.45;;;;;;;16.12;66.15;99398.66;1730050;81;25715;-83
2022/09/16 09:14:19;;;;;;;8.78;2.17;;;;;;;16.11;65.79;99401.09;1733704;81;25756;-82
2022/09/16 09:17:00;;;;;;;6.20;1.10;;;;;;;16.10;65.62;99400.79;1733368;81;28257;-83
2022/09/16 09:19:56;;;;;;;8.70;2.45;;;;;;;16.09;65.16;99406.45;1724622;81;26538;-82
2022/09/16 09:22:46;;;;;;;7.85;1.80;;;;;;;16.06;65.36;99402.36;1733957;82;25302;-83
2022/09/16 09:25:57;;;;;;;9.03;2.10;;;;;;;16.11;65.94;99403.79;1709164;82;25910;-82
2022/09/16 09:28:38;;;;;;;6.55;1.37;;;;;;;16.06;65.06;99405.59;1727285;82;25814;-83
2022/09/16 09:31:25;;;;;;;6.45;1.25;;;;;;;16.00;65.09;99403.89;1723123;81;27457;-82
2022/09/16 09:33:57;;;;;;;8.70;1.40;;;;;;;16.05;65.40;99402.62;1731586;81;25849;-82
2022/09/16 09:36:41;;;;;;;5.55;1.20;;;;;;;16.08;65.03;99405.63;1735267;82;25917;-82
2022/09/16 09:39:21;;;;;;;5.10;0.98;;;;;;;16.06;65.08;99401.02;1737658;81;25808;-84
2022/09/16 09:41:53;;;;;;;7.75;1.20;;;;;;;15.98;63.94;99401.98;1731952;81;25965;-84
2022/09/16 09:44:33;;;;;;;8.88;1.72;;;;;;;15.83;63.57;99403.12;1735985;81;27473;-83
2022/09/16 09:47:05;;;;;;;10.07;2.63;;;;;;;15.80;64.67;99397.69;1732719;81;25757;-83
2022/09/16 09:49:46;;;;;;;9.68;2.15;;;;;;;15.87;65.89;99395.63;1730675;81;26409;-82
2022/09/16 09:52:47;;;;;;;7.40;1.67;;;;;;;15.97;65.94;99393.05;1727281;81;26547;-81
2022/09/16 10:01:59;;;;;;;4.10;1.10;;;;;;;15.84;65.15;99411.53;1688424;82;25541;-82
2022/09/16 10:04:27;;;;;;;4.92;1.10;;;;;;;15.87;65.06;99412.36;1694829;80;28417;-78
2022/09/16 10:06:56;;;;;;;4.72;1.27;;;;;;;15.97;64.76;99407.91;1613405;86;25781;-78
2022/09/16 10:09:23;;;;;;;3.52;1.20;;;;;;;16.03;65.05;99413.69;1617744;87;25813;-78
2022/09/16 10:11:54;;;;;;;5.75;1.60;;;;;;;16.03;64.86;99408.81;1645507;86;27464;-78
2022/09/16 10:14:34;;;;;;;;;;;;;;;16.07;64.75;99413.47;1624182;86;25960;-78
2022/09/16 10:17:05;;;;;;;3.95;1.00;;;;;;;16.09;64.47;99406.45;1654821;85;26393;-78
2022/09/16 10:19:36;;;;;;;6.20;1.17;;;;;;;16.08;64.22;99417.78;1644617;87;26192;-77
2022/09/16 10:22:29;;;;;;;6.60;1.25;;;;;;;16.05;63.07;99407.50;1653702;85;25730;-77
2022/09/16 10:25:03;;;;;;;5.28;1.37;;;;;;;16.09;63.06;99401.05;1630089;85;28389;-77
2022/09/16 10:27:34;;;;;;;3.90;0.90;;;;;;;16.16;62.61;99405.21;1650407;85;25875;-78
2022/09/16 10:30:18;;;;;;;5.97;1.00;;;;;;;16.19;62.05;99407.92;1657579;85;25789;-77
2022/09/16 10:32:58;;;;;;;5.90;1.30;;;;;;;16.15;61.45;99409.49;1658378;85;25759;-78
2022/09/16 10:35:28;;;;;;;7.75;1.10;;;;;;;16.06;60.92;99413.17;1661502;85;25774;-78
2022/09/16 10:37:59;;;;;;;5.25;1.00;;;;;;;16.04;61.09;99413.13;1625589;86;27524;-78
2022/09/16 10:40:26;;;;;;;5.37;1.10;;;;;;;16.06;60.90;99401.54;1619187;85;26462;-78
2022/09/16 10:42:58;;;;;;;8.03;1.02;;;;;;;16.16;61.73;99405.21;1639564;86;25781;-78
2022/09/16 10:45:28;;;;;;;4.28;0.72;;;;;;;16.32;60.78;99406.72;1631505;85;26424;-79
2022/09/16 10:47:59;;;;;;;5.00;1.00;;;;;;;16.46;59.72;99407.98;1639546;86;26510;-78
2022/09/16 10:50:26;;;;;;;3.05;0.93;;;;;;;16.61;60.53;99410.35;1614902;87;26940;-79
2022/09/16 10:52:53;;;;;;;6.83;1.25;;;;;;;16.73;59.59;99417.77;1645233;85;25771;-78
2022/09/16 10:55:25;;;;;;;8.65;1.10;;;;;;;16.77;58.98;99415.36;1619644;87;25759;-77
2022/09/16 10:57:55;;;;;;;2.72;0.60;;;;;;;16.77;59.05;99418.89;1612889;87;26511;-78
2022/09/16 11:00:24;;;;;;;3.20;1.22;;;;;;;16.79;59.05;99412.68;1645836;85;25838;-77
2022/09/16 11:03:28;;;;;;;2.87;0.75;;;;;;;16.82;59.19;99410.01;1665278;83;27511;-77
2022/09/16 11:06:19;;;;;;;3.45;0.82;;;;;;;16.86;58.96;99411.95;1654540;83;25787;-78
2022/09/16 11:09:24;;;;;;;1.62;1.15;;;;;;;16.91;58.54;99413.89;1642579;85;25806;-78
2022/09/16 11:12:23;;;;;;;5.58;1.02;;;;;;;16.87;57.14;99420.89;1615609;86;25816;-78
2022/09/16 11:14:58;;;;;;;2.50;0.93;;;;;;;16.77;57.42;99418.89;1642386;85;25896;-78
2022/09/16 11:17:51;;;;;;;3.45;1.15;;;;;;;16.69;57.18;99417.17;1648995;84;27492;-78
2022/09/16 11:20:29;;;;;;;5.05;1.17;;;;;;;16.63;58.23;99407.38;1651574;84;25710;-78
2022/09/16 11:23:37;;;;;;;8.78;1.35;;;;;;;16.57;58.17;99411.11;1621008;85;25798;-78
2022/09/16 11:26:32;;;;;;;4.35;0.98;;;;;;;16.56;58.46;99402.70;1657319;85;25890;-77
2022/09/16 11:29:13;;;;;;;3.55;1.05;;;;;;;16.63;58.74;99404.15;1654598;84;26912;-77
2022/09/16 11:32:13;;;;;;;5.57;1.07;;;;;;;16.83;59.16;99396.75;1637290;81;27564;31
2022/09/16 11:35:09;;;;;;;2.50;1.07;;;;;;;16.98;58.13;99394.75;1659797;86;26462;-78
2022/09/16 11:37:47;;;;;;;1.30;0.70;;;;;;;17.13;57.84;99387.55;1626201;86;25865;-77
2022/09/16 11:40:51;;;;;;;7.58;1.27;;;;;;;17.27;57.30;99374.41;1638516;86;26235;-78
2022/09/16 11:43:44;;;;;;;5.15;1.00;;;;;;;17.32;56.16;99386.08;1626661;86;25859;-78
2022/09/16 11:46:19;;;;;;;5.40;1.35;;;;;;;17.26;55.70;99383.59;1659072;85;27549;-79
2022/09/16 11:49:06;;;;;;;5.87;0.98;;;;;;;17.20;56.05;99384.63;1624894;86;26387;-79
2022/09/16 11:51:50;;;;;;;1.72;0.82;;;;;;;17.09;55.69;99386.44;1635355;86;26463;-78
2022/09/16 11:54:33;;;;;;;1.95;0.80;;;;;;;16.98;55.15;99390.95;1627133;86;25921;-77
2022/09/16 11:57:05;;;;;;;5.80;0.98;;;;;;;16.89;54.98;99388.42;1636969;86;25895;-77
2022/09/16 11:59:46;;;;;;;2.50;0.72;;;;;;;16.83;55.11;99384.05;1621041;86;28279;-78
2022/09/16 12:02:24;;;;;;;;;;;;;;;16.81;55.30;99384.84;1649586;86;25860;-78
2022/09/16 12:05:22;;;;;;;2.87;0.82;;;;;;;16.78;55.03;99390.78;1630090;87;25825;-78
2022/09/16 12:08:23;;;;;;;3.80;1.12;;;;;;;16.75;54.64;99392.64;1649155;86;25853;-78
2022/09/16 12:11:08;;;;;;;2.58;0.82;;;;;;;16.68;55.27;99398.78;1631521;86;25787;-78
2022/09/16 12:13:45;;;;;;;3.85;1.60;;;;;;;16.65;56.15;99387.66;1635139;85;27488;-77
2022/09/16 12:16:16;;;;;;;5.90;1.37;;;;;;;16.68;56.58;99394.72;1619748;85;25877;-77